Terminal Aerodrome Forecast
Issued by NWS Charleston, WV

Current Version | Previous Version | Graphics & Text | Print | Product List | Glossary On
Versions: 1 2 3 4 5 6 7 8 9 10 11 12 13 14 15 16 17 18 19 20 21 22 23
677
FTUS41 KRLX 101120
TAFPKB
TAF
KPKB 101120Z 1012/1112 25009KT P6SM OVC025
      TEMPO 1012/1016 3SM -SHSN OVC015
     FM101600 25009KT 5SM -SHSN OVC015
      TEMPO 1016/1020 1SM -SHSN OVC008
     FM102200 25010G19KT P6SM -SHSN OVC025
     FM110000 26010G20KT P6SM BKN035
     FM110200 26010G20KT P6SM BKN025
     FM110800 27009KT P6SM BKN012=

USA.gov is the U.S. government's official web portal to all federal, state and local government web resources and services.